sensor_id;sensor_type;location;lat;lon;timestamp;temperature;humidity
13148;DHT22;6639;50.956;4.242;2022-08-16T00:00:31;29.30;83.50
13148;DHT22;6639;50.956;4.242;2022-08-16T00:02:59;29.20;83.60
13148;DHT22;6639;50.956;4.242;2022-08-16T00:05:28;29.20;84.70
13148;DHT22;6639;50.956;4.242;2022-08-16T00:07:56;29.10;84.70
13148;DHT22;6639;50.956;4.242;2022-08-16T00:10:26;28.70;85.60
13148;DHT22;6639;50.956;4.242;2022-08-16T00:12:54;28.80;85.90
13148;DHT22;6639;50.956;4.242;2022-08-16T00:15:29;28.80;85.90
13148;DHT22;6639;50.956;4.242;2022-08-16T00:17:58;28.80;85.60
13148;DHT22;6639;50.956;4.242;2022-08-16T00:20:25;28.70;86.10
13148;DHT22;6639;50.956;4.242;2022-08-16T00:22:52;28.80;86.10
13148;DHT22;6639;50.956;4.242;2022-08-16T00:25:21;28.90;86.00
13148;DHT22;6639;50.956;4.242;2022-08-16T00:27:48;28.80;86.50
13148;DHT22;6639;50.956;4.242;2022-08-16T00:30:19;28.80;86.30
13148;DHT22;6639;50.956;4.242;2022-08-16T00:32:50;28.70;86.80
13148;DHT22;6639;50.956;4.242;2022-08-16T00:35:20;28.70;86.50
13148;DHT22;6639;50.956;4.242;2022-08-16T00:37:48;28.80;87.00
13148;DHT22;6639;50.956;4.242;2022-08-16T00:40:18;28.90;87.10
13148;DHT22;6639;50.956;4.242;2022-08-16T00:42:46;28.90;87.00
13148;DHT22;6639;50.956;4.242;2022-08-16T00:45:29;29.00;87.30
13148;DHT22;6639;50.956;4.242;2022-08-16T00:47:58;28.90;87.00
13148;DHT22;6639;50.956;4.242;2022-08-16T00:50:28;28.90;86.70
13148;DHT22;6639;50.956;4.242;2022-08-16T00:52:56;28.90;86.80
13148;DHT22;6639;50.956;4.242;2022-08-16T00:55:24;29.00;87.30
13148;DHT22;6639;50.956;4.242;2022-08-16T00:57:55;28.90;87.20
13148;DHT22;6639;50.956;4.242;2022-08-16T01:00:23;28.90;86.60
13148;DHT22;6639;50.956;4.242;2022-08-16T01:02:54;29.00;87.10
13148;DHT22;6639;50.956;4.242;2022-08-16T01:05:23;29.00;86.90
13148;DHT22;6639;50.956;4.242;2022-08-16T01:07:51;29.00;86.90
13148;DHT22;6639;50.956;4.242;2022-08-16T01:10:20;28.90;86.90
13148;DHT22;6639;50.956;4.242;2022-08-16T01:12:47;28.80;87.20
13148;DHT22;6639;50.956;4.242;2022-08-16T01:15:14;28.80;87.10
13148;DHT22;6639;50.956;4.242;2022-08-16T01:17:43;28.80;86.70
13148;DHT22;6639;50.956;4.242;2022-08-16T01:20:11;28.90;86.90
13148;DHT22;6639;50.956;4.242;2022-08-16T01:22:48;29.00;86.80
13148;DHT22;6639;50.956;4.242;2022-08-16T01:25:21;28.70;86.70
13148;DHT22;6639;50.956;4.242;2022-08-16T01:27:51;28.60;87.20
13148;DHT22;6639;50.956;4.242;2022-08-16T01:30:20;28.70;87.30
13148;DHT22;6639;50.956;4.242;2022-08-16T01:32:48;28.50;87.20
13148;DHT22;6639;50.956;4.242;2022-08-16T01:35:22;28.40;87.80
13148;DHT22;6639;50.956;4.242;2022-08-16T01:37:54;27.90;89.00
13148;DHT22;6639;50.956;4.242;2022-08-16T01:40:25;27.90;89.90
13148;DHT22;6639;50.956;4.242;2022-08-16T01:42:53;27.90;89.80
13148;DHT22;6639;50.956;4.242;2022-08-16T01:45:21;28.00;89.20
13148;DHT22;6639;50.956;4.242;2022-08-16T01:47:50;28.20;88.90
13148;DHT22;6639;50.956;4.242;2022-08-16T01:50:19;28.10;88.80
13148;DHT22;6639;50.956;4.242;2022-08-16T01:52:47;28.10;88.40
13148;DHT22;6639;50.956;4.242;2022-08-16T01:55:15;28.10;88.60
13148;DHT22;6639;50.956;4.242;2022-08-16T01:57:44;28.00;88.90
13148;DHT22;6639;50.956;4.242;2022-08-16T02:00:12;27.70;89.20
13148;DHT22;6639;50.956;4.242;2022-08-16T02:02:40;27.60;90.00
13148;DHT22;6639;50.956;4.242;2022-08-16T02:05:07;27.60;90.00
13148;DHT22;6639;50.956;4.242;2022-08-16T02:07:35;27.70;89.60
13148;DHT22;6639;50.956;4.242;2022-08-16T02:10:04;27.70;88.50
13148;DHT22;6639;50.956;4.242;2022-08-16T02:12:32;27.70;88.70
13148;DHT22;6639;50.956;4.242;2022-08-16T02:15:01;27.70;88.30
13148;DHT22;6639;50.956;4.242;2022-08-16T02:17:29;27.50;88.80
13148;DHT22;6639;50.956;4.242;2022-08-16T02:19:56;27.80;88.30
13148;DHT22;6639;50.956;4.242;2022-08-16T02:22:24;28.00;87.80
13148;DHT22;6639;50.956;4.242;2022-08-16T02:24:51;28.00;87.50
13148;DHT22;6639;50.956;4.242;2022-08-16T02:27:17;28.10;87.40
13148;DHT22;6639;50.956;4.242;2022-08-16T02:29:44;28.00;87.70
13148;DHT22;6639;50.956;4.242;2022-08-16T02:32:15;27.90;87.30
13148;DHT22;6639;50.956;4.242;2022-08-16T02:34:42;27.60;87.80
13148;DHT22;6639;50.956;4.242;2022-08-16T02:37:10;27.70;88.30
13148;DHT22;6639;50.956;4.242;2022-08-16T02:39:37;27.50;88.70
13148;DHT22;6639;50.956;4.242;2022-08-16T02:42:04;27.70;88.70
13148;DHT22;6639;50.956;4.242;2022-08-16T02:44:31;27.70;88.10
13148;DHT22;6639;50.956;4.242;2022-08-16T02:46:58;27.70;88.40
13148;DHT22;6639;50.956;4.242;2022-08-16T02:49:26;27.50;88.30
13148;DHT22;6639;50.956;4.242;2022-08-16T02:51:53;27.20;89.10
13148;DHT22;6639;50.956;4.242;2022-08-16T02:54:20;27.20;89.50
13148;DHT22;6639;50.956;4.242;2022-08-16T02:56:47;27.30;89.20
13148;DHT22;6639;50.956;4.242;2022-08-16T02:59:14;27.40;89.00
13148;DHT22;6639;50.956;4.242;2022-08-16T03:01:40;27.60;88.90
13148;DHT22;6639;50.956;4.242;2022-08-16T03:04:07;27.60;88.40
13148;DHT22;6639;50.956;4.242;2022-08-16T03:06:36;27.60;88.00
13148;DHT22;6639;50.956;4.242;2022-08-16T03:09:03;27.70;88.00
13148;DHT22;6639;50.956;4.242;2022-08-16T03:11:30;27.70;87.60
13148;DHT22;6639;50.956;4.242;2022-08-16T03:13:58;27.70;87.80
13148;DHT22;6639;50.956;4.242;2022-08-16T03:16:25;27.70;87.90
13148;DHT22;6639;50.956;4.242;2022-08-16T03:18:52;27.50;87.80
13148;DHT22;6639;50.956;4.242;2022-08-16T03:21:19;27.40;87.70
13148;DHT22;6639;50.956;4.242;2022-08-16T03:23:48;27.50;87.90
13148;DHT22;6639;50.956;4.242;2022-08-16T03:26:15;27.50;88.30
13148;DHT22;6639;50.956;4.242;2022-08-16T03:28:42;27.20;88.90
13148;DHT22;6639;50.956;4.242;2022-08-16T03:31:09;27.10;89.20
13148;DHT22;6639;50.956;4.242;2022-08-16T03:33:36;26.90;90.10
13148;DHT22;6639;50.956;4.242;2022-08-16T03:36:04;27.10;89.50
13148;DHT22;6639;50.956;4.242;2022-08-16T03:38:32;27.20;89.60
13148;DHT22;6639;50.956;4.242;2022-08-16T03:41:03;27.20;89.40
13148;DHT22;6639;50.956;4.242;2022-08-16T03:43:31;27.10;89.80
13148;DHT22;6639;50.956;4.242;2022-08-16T03:45:58;26.70;90.50
13148;DHT22;6639;50.956;4.242;2022-08-16T03:48:27;26.80;90.50
13148;DHT22;6639;50.956;4.242;2022-08-16T03:50:57;26.90;90.40
13148;DHT22;6639;50.956;4.242;2022-08-16T03:53:24;27.00;90.10
13148;DHT22;6639;50.956;4.242;2022-08-16T03:55:51;27.00;90.20
13148;DHT22;6639;50.956;4.242;2022-08-16T03:58:19;26.70;90.60
13148;DHT22;6639;50.956;4.242;2022-08-16T04:00:46;26.90;90.90
13148;DHT22;6639;50.956;4.242;2022-08-16T04:03:15;26.90;90.60
13148;DHT22;6639;50.956;4.242;2022-08-16T04:05:44;26.70;91.00
13148;DHT22;6639;50.956;4.242;2022-08-16T04:08:12;26.80;90.90
13148;DHT22;6639;50.956;4.242;2022-08-16T04:10:39;26.60;91.00
13148;DHT22;6639;50.956;4.242;2022-08-16T04:13:06;26.40;91.20
13148;DHT22;6639;50.956;4.242;2022-08-16T04:15:34;26.50;91.50
13148;DHT22;6639;50.956;4.242;2022-08-16T04:18:03;26.20;91.70
13148;DHT22;6639;50.956;4.242;2022-08-16T04:20:30;26.00;92.50
13148;DHT22;6639;50.956;4.242;2022-08-16T04:22:57;25.80;92.60
13148;DHT22;6639;50.956;4.242;2022-08-16T04:25:25;25.80;93.40
13148;DHT22;6639;50.956;4.242;2022-08-16T04:27:52;25.80;93.40
13148;DHT22;6639;50.956;4.242;2022-08-16T04:30:20;25.80;93.40
13148;DHT22;6639;50.956;4.242;2022-08-16T04:32:48;25.90;93.20
13148;DHT22;6639;50.956;4.242;2022-08-16T04:35:18;25.70;93.60
13148;DHT22;6639;50.956;4.242;2022-08-16T04:37:46;25.60;93.60
13148;DHT22;6639;50.956;4.242;2022-08-16T04:40:14;25.70;94.00
13148;DHT22;6639;50.956;4.242;2022-08-16T04:42:42;25.70;94.00
13148;DHT22;6639;50.956;4.242;2022-08-16T04:45:12;25.90;93.90
13148;DHT22;6639;50.956;4.242;2022-08-16T04:47:39;25.70;93.80
13148;DHT22;6639;50.956;4.242;2022-08-16T04:50:10;25.70;93.90
13148;DHT22;6639;50.956;4.242;2022-08-16T04:52:37;25.80;94.20
13148;DHT22;6639;50.956;4.242;2022-08-16T04:55:07;25.90;93.90
13148;DHT22;6639;50.956;4.242;2022-08-16T04:57:35;25.80;93.90
13148;DHT22;6639;50.956;4.242;2022-08-16T05:00:05;25.90;94.30
13148;DHT22;6639;50.956;4.242;2022-08-16T05:02:33;25.90;93.70
13148;DHT22;6639;50.956;4.242;2022-08-16T05:05:00;26.00;93.90
13148;DHT22;6639;50.956;4.242;2022-08-16T05:07:28;25.90;93.90
13148;DHT22;6639;50.956;4.242;2022-08-16T05:09:55;25.90;94.20
13148;DHT22;6639;50.956;4.242;2022-08-16T05:12:21;25.80;94.40
13148;DHT22;6639;50.956;4.242;2022-08-16T05:14:48;25.70;94.30
13148;DHT22;6639;50.956;4.242;2022-08-16T05:17:15;25.90;94.30
13148;DHT22;6639;50.956;4.242;2022-08-16T05:19:42;25.80;94.60
13148;DHT22;6639;50.956;4.242;2022-08-16T05:22:09;25.70;94.80
13148;DHT22;6639;50.956;4.242;2022-08-16T05:24:38;25.90;94.30
13148;DHT22;6639;50.956;4.242;2022-08-16T05:27:05;26.00;94.30
13148;DHT22;6639;50.956;4.242;2022-08-16T05:29:32;26.00;94.30
13148;DHT22;6639;50.956;4.242;2022-08-16T05:31:59;26.40;94.10
13148;DHT22;6639;50.956;4.242;2022-08-16T05:34:26;26.50;93.80
13148;DHT22;6639;50.956;4.242;2022-08-16T05:36:53;26.40;93.60
13148;DHT22;6639;50.956;4.242;2022-08-16T05:39:22;26.50;93.90
13148;DHT22;6639;50.956;4.242;2022-08-16T05:41:51;26.50;93.40
13148;DHT22;6639;50.956;4.242;2022-08-16T05:44:18;26.40;93.70
13148;DHT22;6639;50.956;4.242;2022-08-16T05:46:46;26.00;93.70
13148;DHT22;6639;50.956;4.242;2022-08-16T05:49:13;26.20;94.60
13148;DHT22;6639;50.956;4.242;2022-08-16T05:51:42;26.30;94.30
13148;DHT22;6639;50.956;4.242;2022-08-16T05:54:10;26.50;94.10
13148;DHT22;6639;50.956;4.242;2022-08-16T05:56:39;26.90;93.70
13148;DHT22;6639;50.956;4.242;2022-08-16T05:59:08;26.90;93.00
13148;DHT22;6639;50.956;4.242;2022-08-16T06:01:35;27.10;93.30
13148;DHT22;6639;50.956;4.242;2022-08-16T06:04:02;27.10;93.30
13148;DHT22;6639;50.956;4.242;2022-08-16T06:06:29;27.30;93.10
13148;DHT22;6639;50.956;4.242;2022-08-16T06:08:56;27.10;93.30
13148;DHT22;6639;50.956;4.242;2022-08-16T06:11:23;27.30;92.80
13148;DHT22;6639;50.956;4.242;2022-08-16T06:13:50;27.60;92.50
13148;DHT22;6639;50.956;4.242;2022-08-16T06:16:18;27.70;92.10
13148;DHT22;6639;50.956;4.242;2022-08-16T06:18:45;27.90;92.80
13148;DHT22;6639;50.956;4.242;2022-08-16T06:21:13;28.20;91.50
13148;DHT22;6639;50.956;4.242;2022-08-16T06:23:40;28.80;90.90
13148;DHT22;6639;50.956;4.242;2022-08-16T06:26:07;28.70;90.30
13148;DHT22;6639;50.956;4.242;2022-08-16T06:28:34;28.90;89.80
13148;DHT22;6639;50.956;4.242;2022-08-16T06:31:01;29.20;89.80
13148;DHT22;6639;50.956;4.242;2022-08-16T06:33:29;29.10;88.50
13148;DHT22;6639;50.956;4.242;2022-08-16T06:35:56;29.20;88.20
13148;DHT22;6639;50.956;4.242;2022-08-16T06:38:23;29.10;88.10
13148;DHT22;6639;50.956;4.242;2022-08-16T06:40:50;29.00;88.00
13148;DHT22;6639;50.956;4.242;2022-08-16T06:43:17;28.90;88.70
13148;DHT22;6639;50.956;4.242;2022-08-16T06:45:45;29.00;88.30
13148;DHT22;6639;50.956;4.242;2022-08-16T06:48:12;28.90;87.90
13148;DHT22;6639;50.956;4.242;2022-08-16T06:50:41;29.00;88.60
13148;DHT22;6639;50.956;4.242;2022-08-16T06:53:08;29.10;88.90
13148;DHT22;6639;50.956;4.242;2022-08-16T06:55:35;29.10;88.50
13148;DHT22;6639;50.956;4.242;2022-08-16T06:58:02;29.30;88.30
13148;DHT22;6639;50.956;4.242;2022-08-16T07:00:29;29.10;88.60
13148;DHT22;6639;50.956;4.242;2022-08-16T07:02:56;29.60;87.90
13148;DHT22;6639;50.956;4.242;2022-08-16T07:05:23;30.10;86.60
13148;DHT22;6639;50.956;4.242;2022-08-16T07:07:51;30.30;85.50
13148;DHT22;6639;50.956;4.242;2022-08-16T07:10:19;30.40;84.30
13148;DHT22;6639;50.956;4.242;2022-08-16T07:12:46;30.40;83.90
13148;DHT22;6639;50.956;4.242;2022-08-16T07:15:15;30.30;84.20
13148;DHT22;6639;50.956;4.242;2022-08-16T07:17:43;30.80;84.30
13148;DHT22;6639;50.956;4.242;2022-08-16T07:20:11;31.40;82.30
13148;DHT22;6639;50.956;4.242;2022-08-16T07:22:38;31.60;80.50
13148;DHT22;6639;50.956;4.242;2022-08-16T07:25:09;31.70;81.20
13148;DHT22;6639;50.956;4.242;2022-08-16T07:27:37;32.20;79.90
13148;DHT22;6639;50.956;4.242;2022-08-16T07:30:06;32.10;77.80
13148;DHT22;6639;50.956;4.242;2022-08-16T07:32:33;32.00;77.90
13148;DHT22;6639;50.956;4.242;2022-08-16T07:35:00;32.00;77.40
13148;DHT22;6639;50.956;4.242;2022-08-16T07:37:27;31.80;77.00
13148;DHT22;6639;50.956;4.242;2022-08-16T07:39:54;31.60;78.40
13148;DHT22;6639;50.956;4.242;2022-08-16T07:42:22;32.00;77.90
13148;DHT22;6639;50.956;4.242;2022-08-16T07:44:49;32.20;77.40
13148;DHT22;6639;50.956;4.242;2022-08-16T07:47:16;32.00;76.70
13148;DHT22;6639;50.956;4.242;2022-08-16T07:49:42;31.90;76.40
13148;DHT22;6639;50.956;4.242;2022-08-16T07:52:09;31.60;77.20
13148;DHT22;6639;50.956;4.242;2022-08-16T07:54:36;31.80;78.60
13148;DHT22;6639;50.956;4.242;2022-08-16T07:57:04;32.00;77.40
13148;DHT22;6639;50.956;4.242;2022-08-16T07:59:32;31.90;75.90
13148;DHT22;6639;50.956;4.242;2022-08-16T08:02:00;31.70;76.20
13148;DHT22;6639;50.956;4.242;2022-08-16T08:04:28;31.90;76.00
13148;DHT22;6639;50.956;4.242;2022-08-16T08:06:57;32.10;77.00
13148;DHT22;6639;50.956;4.242;2022-08-16T08:09:24;32.60;76.90
13148;DHT22;6639;50.956;4.242;2022-08-16T08:11:51;33.10;76.20
13148;DHT22;6639;50.956;4.242;2022-08-16T08:14:18;33.00;73.60
13148;DHT22;6639;50.956;4.242;2022-08-16T08:16:47;33.30;72.80
13148;DHT22;6639;50.956;4.242;2022-08-16T08:19:14;33.20;73.30
13148;DHT22;6639;50.956;4.242;2022-08-16T08:21:41;33.40;71.20
13148;DHT22;6639;50.956;4.242;2022-08-16T08:24:10;33.10;70.80
13148;DHT22;6639;50.956;4.242;2022-08-16T08:26:40;33.50;71.40
13148;DHT22;6639;50.956;4.242;2022-08-16T08:29:07;33.90;71.10
13148;DHT22;6639;50.956;4.242;2022-08-16T08:31:34;34.30;70.20
13148;DHT22;6639;50.956;4.242;2022-08-16T08:34:03;34.40;69.70
13148;DHT22;6639;50.956;4.242;2022-08-16T08:36:33;34.60;69.20
13148;DHT22;6639;50.956;4.242;2022-08-16T08:39:00;34.60;69.10
13148;DHT22;6639;50.956;4.242;2022-08-16T08:41:27;34.90;69.10
13148;DHT22;6639;50.956;4.242;2022-08-16T08:43:54;34.70;67.70
13148;DHT22;6639;50.956;4.242;2022-08-16T08:46:22;34.80;67.40
13148;DHT22;6639;50.956;4.242;2022-08-16T08:48:50;35.10;67.70
13148;DHT22;6639;50.956;4.242;2022-08-16T08:51:19;35.30;65.70
13148;DHT22;6639;50.956;4.242;2022-08-16T08:53:47;35.50;64.70
13148;DHT22;6639;50.956;4.242;2022-08-16T08:56:14;35.60;64.90
13148;DHT22;6639;50.956;4.242;2022-08-16T08:58:42;35.80;64.00
13148;DHT22;6639;50.956;4.242;2022-08-16T09:01:09;35.10;64.80
13148;DHT22;6639;50.956;4.242;2022-08-16T09:03:37;34.70;65.90
13148;DHT22;6639;50.956;4.242;2022-08-16T09:06:05;34.00;66.90
13148;DHT22;6639;50.956;4.242;2022-08-16T09:08:34;34.10;67.20
13148;DHT22;6639;50.956;4.242;2022-08-16T09:11:01;34.30;67.80
13148;DHT22;6639;50.956;4.242;2022-08-16T09:13:28;34.30;66.00
13148;DHT22;6639;50.956;4.242;2022-08-16T09:15:56;34.40;66.10
13148;DHT22;6639;50.956;4.242;2022-08-16T09:18:23;34.30;66.40
13148;DHT22;6639;50.956;4.242;2022-08-16T09:20:51;34.30;67.80
13148;DHT22;6639;50.956;4.242;2022-08-16T09:23:19;34.20;66.60
13148;DHT22;6639;50.956;4.242;2022-08-16T09:25:47;34.30;67.10
13148;DHT22;6639;50.956;4.242;2022-08-16T09:28:15;34.80;65.70
13148;DHT22;6639;50.956;4.242;2022-08-16T09:30:42;35.00;66.00
13148;DHT22;6639;50.956;4.242;2022-08-16T09:33:10;35.00;64.60
13148;DHT22;6639;50.956;4.242;2022-08-16T09:35:37;34.80;62.90
13148;DHT22;6639;50.956;4.242;2022-08-16T09:38:04;34.80;63.10
13148;DHT22;6639;50.956;4.242;2022-08-16T09:40:31;34.50;63.40
13148;DHT22;6639;50.956;4.242;2022-08-16T09:43:00;34.60;63.60
13148;DHT22;6639;50.956;4.242;2022-08-16T09:45:27;34.40;62.80
13148;DHT22;6639;50.956;4.242;2022-08-16T09:47:55;34.50;64.30
13148;DHT22;6639;50.956;4.242;2022-08-16T09:50:23;34.80;65.20
13148;DHT22;6639;50.956;4.242;2022-08-16T09:52:51;35.00;61.50
13148;DHT22;6639;50.956;4.242;2022-08-16T09:55:18;34.90;60.40
13148;DHT22;6639;50.956;4.242;2022-08-16T09:57:45;34.80;61.00
13148;DHT22;6639;50.956;4.242;2022-08-16T10:00:13;34.60;61.50
13148;DHT22;6639;50.956;4.242;2022-08-16T10:02:40;35.20;62.30
13148;DHT22;6639;50.956;4.242;2022-08-16T10:05:08;35.40;62.00
13148;DHT22;6639;50.956;4.242;2022-08-16T10:07:36;35.50;60.30
13148;DHT22;6639;50.956;4.242;2022-08-16T10:10:03;35.30;59.10
13148;DHT22;6639;50.956;4.242;2022-08-16T10:12:30;34.80;59.70
13148;DHT22;6639;50.956;4.242;2022-08-16T10:15:18;34.90;59.80
13148;DHT22;6639;50.956;4.242;2022-08-16T10:17:46;35.30;59.70
13148;DHT22;6639;50.956;4.242;2022-08-16T10:20:14;35.30;59.60
13148;DHT22;6639;50.956;4.242;2022-08-16T10:22:41;36.00;61.30
13148;DHT22;6639;50.956;4.242;2022-08-16T10:25:08;36.20;59.90
13148;DHT22;6639;50.956;4.242;2022-08-16T10:27:35;36.30;59.10
13148;DHT22;6639;50.956;4.242;2022-08-16T10:30:03;36.10;58.20
13148;DHT22;6639;50.956;4.242;2022-08-16T10:32:33;35.80;58.30
13148;DHT22;6639;50.956;4.242;2022-08-16T10:35:00;36.00;58.80
13148;DHT22;6639;50.956;4.242;2022-08-16T10:37:28;35.20;59.10
13148;DHT22;6639;50.956;4.242;2022-08-16T10:39:55;34.90;59.40
13148;DHT22;6639;50.956;4.242;2022-08-16T10:42:22;35.00;59.30
13148;DHT22;6639;50.956;4.242;2022-08-16T10:44:48;35.30;59.70
13148;DHT22;6639;50.956;4.242;2022-08-16T10:47:15;35.50;59.80
13148;DHT22;6639;50.956;4.242;2022-08-16T10:49:43;35.70;59.50
13148;DHT22;6639;50.956;4.242;2022-08-16T10:52:10;35.30;59.60
13148;DHT22;6639;50.956;4.242;2022-08-16T10:54:38;34.90;59.80
13148;DHT22;6639;50.956;4.242;2022-08-16T10:57:05;34.80;59.80
13148;DHT22;6639;50.956;4.242;2022-08-16T10:59:33;34.50;60.30
13148;DHT22;6639;50.956;4.242;2022-08-16T11:02:00;34.10;61.30
13148;DHT22;6639;50.956;4.242;2022-08-16T11:04:28;34.00;61.30
13148;DHT22;6639;50.956;4.242;2022-08-16T11:06:56;33.90;60.40
13148;DHT22;6639;50.956;4.242;2022-08-16T11:09:23;33.90;61.00
13148;DHT22;6639;50.956;4.242;2022-08-16T11:11:50;33.70;62.00
13148;DHT22;6639;50.956;4.242;2022-08-16T11:14:17;33.70;61.60
13148;DHT22;6639;50.956;4.242;2022-08-16T11:16:44;33.70;61.50
13148;DHT22;6639;50.956;4.242;2022-08-16T11:19:11;33.40;60.40
13148;DHT22;6639;50.956;4.242;2022-08-16T11:21:39;33.00;61.00
13148;DHT22;6639;50.956;4.242;2022-08-16T11:24:08;33.20;61.50
13148;DHT22;6639;50.956;4.242;2022-08-16T11:26:35;33.40;61.10
13148;DHT22;6639;50.956;4.242;2022-08-16T11:29:02;33.10;61.70
13148;DHT22;6639;50.956;4.242;2022-08-16T11:31:29;33.00;62.30
13148;DHT22;6639;50.956;4.242;2022-08-16T11:33:56;32.90;63.10
13148;DHT22;6639;50.956;4.242;2022-08-16T11:36:23;32.70;62.90
13148;DHT22;6639;50.956;4.242;2022-08-16T11:38:50;33.10;64.30
13148;DHT22;6639;50.956;4.242;2022-08-16T11:41:18;33.20;64.20
13148;DHT22;6639;50.956;4.242;2022-08-16T11:43:45;33.50;64.20
13148;DHT22;6639;50.956;4.242;2022-08-16T11:46:14;34.00;64.20
13148;DHT22;6639;50.956;4.242;2022-08-16T11:48:42;34.00;62.50
13148;DHT22;6639;50.956;4.242;2022-08-16T11:51:10;34.00;64.20
13148;DHT22;6639;50.956;4.242;2022-08-16T11:53:38;33.80;64.10
13148;DHT22;6639;50.956;4.242;2022-08-16T11:56:05;34.30;62.50
13148;DHT22;6639;50.956;4.242;2022-08-16T11:58:34;34.30;62.10
13148;DHT22;6639;50.956;4.242;2022-08-16T12:01:04;34.70;62.20
13148;DHT22;6639;50.956;4.242;2022-08-16T12:03:31;34.10;61.30
13148;DHT22;6639;50.956;4.242;2022-08-16T12:05:59;34.40;61.90
13148;DHT22;6639;50.956;4.242;2022-08-16T12:08:28;34.90;62.60
13148;DHT22;6639;50.956;4.242;2022-08-16T12:10:55;34.90;62.60
13148;DHT22;6639;50.956;4.242;2022-08-16T12:13:24;35.60;61.70
13148;DHT22;6639;50.956;4.242;2022-08-16T12:15:53;35.80;60.50
13148;DHT22;6639;50.956;4.242;2022-08-16T12:18:21;35.60;60.60
13148;DHT22;6639;50.956;4.242;2022-08-16T12:20:47;35.30;61.70
13148;DHT22;6639;50.956;4.242;2022-08-16T12:23:15;35.70;61.80
13148;DHT22;6639;50.956;4.242;2022-08-16T12:25:42;35.80;63.70
13148;DHT22;6639;50.956;4.242;2022-08-16T12:28:09;36.00;63.00
13148;DHT22;6639;50.956;4.242;2022-08-16T12:30:38;36.50;61.10
13148;DHT22;6639;50.956;4.242;2022-08-16T12:33:09;36.10;59.60
13148;DHT22;6639;50.956;4.242;2022-08-16T12:35:37;35.80;59.50
13148;DHT22;6639;50.956;4.242;2022-08-16T12:38:06;36.10;60.40
13148;DHT22;6639;50.956;4.242;2022-08-16T12:40:36;36.40;59.40
13148;DHT22;6639;50.956;4.242;2022-08-16T12:43:04;36.40;59.10
13148;DHT22;6639;50.956;4.242;2022-08-16T12:45:34;35.90;59.10
13148;DHT22;6639;50.956;4.242;2022-08-16T12:48:01;35.90;59.60
13148;DHT22;6639;50.956;4.242;2022-08-16T12:50:46;35.90;60.50
13148;DHT22;6639;50.956;4.242;2022-08-16T12:53:14;36.40;61.00
13148;DHT22;6639;50.956;4.242;2022-08-16T12:55:42;36.30;61.60
13148;DHT22;6639;50.956;4.242;2022-08-16T12:58:09;36.40;61.20
13148;DHT22;6639;50.956;4.242;2022-08-16T13:00:36;36.50;61.10
13148;DHT22;6639;50.956;4.242;2022-08-16T13:03:03;36.80;59.90
13148;DHT22;6639;50.956;4.242;2022-08-16T13:05:30;36.70;59.30
13148;DHT22;6639;50.956;4.242;2022-08-16T13:08:06;37.30;59.20
13148;DHT22;6639;50.956;4.242;2022-08-16T13:10:33;37.50;58.30
13148;DHT22;6639;50.956;4.242;2022-08-16T13:13:00;37.70;58.40
13148;DHT22;6639;50.956;4.242;2022-08-16T13:15:30;37.60;57.90
13148;DHT22;6639;50.956;4.242;2022-08-16T13:18:00;37.40;56.90
13148;DHT22;6639;50.956;4.242;2022-08-16T13:20:27;37.10;57.40
13148;DHT22;6639;50.956;4.242;2022-08-16T13:22:59;36.90;57.00
13148;DHT22;6639;50.956;4.242;2022-08-16T13:25:30;37.10;57.20
13148;DHT22;6639;50.956;4.242;2022-08-16T13:27:57;36.90;57.00
13148;DHT22;6639;50.956;4.242;2022-08-16T13:30:26;36.90;57.80
13148;DHT22;6639;50.956;4.242;2022-08-16T13:32:53;36.90;57.40
13148;DHT22;6639;50.956;4.242;2022-08-16T13:35:21;37.00;57.50
13148;DHT22;6639;50.956;4.242;2022-08-16T13:37:49;36.70;56.70
13148;DHT22;6639;50.956;4.242;2022-08-16T13:40:16;36.00;57.50
13148;DHT22;6639;50.956;4.242;2022-08-16T13:42:44;36.00;58.60
13148;DHT22;6639;50.956;4.242;2022-08-16T13:45:13;36.20;58.30
13148;DHT22;6639;50.956;4.242;2022-08-16T13:47:40;36.50;58.40
13148;DHT22;6639;50.956;4.242;2022-08-16T13:50:09;36.40;58.10
13148;DHT22;6639;50.956;4.242;2022-08-16T13:52:36;36.80;58.20
13148;DHT22;6639;50.956;4.242;2022-08-16T13:55:03;36.80;58.00
13148;DHT22;6639;50.956;4.242;2022-08-16T13:57:30;35.90;58.30
13148;DHT22;6639;50.956;4.242;2022-08-16T13:59:59;36.10;58.60
13148;DHT22;6639;50.956;4.242;2022-08-16T14:02:26;36.00;58.40
13148;DHT22;6639;50.956;4.242;2022-08-16T14:04:53;36.30;59.10
13148;DHT22;6639;50.956;4.242;2022-08-16T14:07:20;35.90;58.70
13148;DHT22;6639;50.956;4.242;2022-08-16T14:09:47;36.20;58.80
13148;DHT22;6639;50.956;4.242;2022-08-16T14:12:18;36.50;59.00
13148;DHT22;6639;50.956;4.242;2022-08-16T14:14:46;36.80;58.80
13148;DHT22;6639;50.956;4.242;2022-08-16T14:17:18;36.70;58.30
13148;DHT22;6639;50.956;4.242;2022-08-16T14:19:46;36.80;58.60
13148;DHT22;6639;50.956;4.242;2022-08-16T14:22:18;36.40;57.80
13148;DHT22;6639;50.956;4.242;2022-08-16T14:24:47;36.40;57.80
13148;DHT22;6639;50.956;4.242;2022-08-16T14:27:15;36.30;58.70
13148;DHT22;6639;50.956;4.242;2022-08-16T14:29:42;36.40;58.10
13148;DHT22;6639;50.956;4.242;2022-08-16T14:32:09;36.30;58.00
13148;DHT22;6639;50.956;4.242;2022-08-16T14:34:38;36.60;57.70
13148;DHT22;6639;50.956;4.242;2022-08-16T14:37:04;36.70;58.20
13148;DHT22;6639;50.956;4.242;2022-08-16T14:39:32;37.10;57.50
13148;DHT22;6639;50.956;4.242;2022-08-16T14:42:07;37.30;57.30
13148;DHT22;6639;50.956;4.242;2022-08-16T14:44:34;37.70;57.00
13148;DHT22;6639;50.956;4.242;2022-08-16T14:47:02;37.50;56.40
13148;DHT22;6639;50.956;4.242;2022-08-16T14:49:29;37.20;57.20
13148;DHT22;6639;50.956;4.242;2022-08-16T14:52:01;37.10;56.80
13148;DHT22;6639;50.956;4.242;2022-08-16T14:54:28;36.90;57.40
13148;DHT22;6639;50.956;4.242;2022-08-16T14:56:55;37.00;57.50
13148;DHT22;6639;50.956;4.242;2022-08-16T14:59:23;37.20;57.10
13148;DHT22;6639;50.956;4.242;2022-08-16T15:01:50;37.20;57.40
13148;DHT22;6639;50.956;4.242;2022-08-16T15:04:17;37.20;57.50
13148;DHT22;6639;50.956;4.242;2022-08-16T15:06:44;37.00;57.80
13148;DHT22;6639;50.956;4.242;2022-08-16T15:09:12;37.00;57.90
13148;DHT22;6639;50.956;4.242;2022-08-16T15:11:39;36.90;57.50
13148;DHT22;6639;50.956;4.242;2022-08-16T15:14:06;36.70;58.00
13148;DHT22;6639;50.956;4.242;2022-08-16T15:16:33;36.70;58.60
13148;DHT22;6639;50.956;4.242;2022-08-16T15:19:00;36.60;58.40
13148;DHT22;6639;50.956;4.242;2022-08-16T15:21:29;36.40;58.40
13148;DHT22;6639;50.956;4.242;2022-08-16T15:23:57;36.50;58.40
13148;DHT22;6639;50.956;4.242;2022-08-16T15:26:26;36.70;59.20
13148;DHT22;6639;50.956;4.242;2022-08-16T15:28:53;36.00;58.60
13148;DHT22;6639;50.956;4.242;2022-08-16T15:31:19;35.80;58.80
13148;DHT22;6639;50.956;4.242;2022-08-16T15:33:50;35.90;58.80
13148;DHT22;6639;50.956;4.242;2022-08-16T15:36:18;35.90;59.00
13148;DHT22;6639;50.956;4.242;2022-08-16T15:38:47;36.30;58.80
13148;DHT22;6639;50.956;4.242;2022-08-16T15:44:22;36.50;58.30
13148;DHT22;6639;50.956;4.242;2022-08-16T15:46:50;36.30;58.30
13148;DHT22;6639;50.956;4.242;2022-08-16T15:49:17;36.40;58.80
13148;DHT22;6639;50.956;4.242;2022-08-16T15:51:44;36.40;58.80